Time;durP1;ratioP1;P1;durP2;ratioP2;P2;SDS_P1;SDS_P2;PMS_P1;PMS_P2;Temp;Humidity;BMP_temperature;BMP_pressure;BME280_temperature;BME280_humidity;BME280_pressure;Samples;Min_cycle;Max_cycle;Signal;HPM_P1;HPM_P2
2022/09/04 00:01:24;;;;;;;1.30;1.10;;;20.40;55.40;;;;;;5057085;28;21191;-69
2022/09/04 00:03:56;;;;;;;1.30;1.20;;;20.40;55.60;;;;;;5049200;28;20440;-69
2022/09/04 00:06:31;;;;;;;1.30;1.10;;;20.40;55.30;;;;;;5063227;28;20447;-68
2022/09/04 00:09:20;;;;;;;1.30;1.10;;;20.30;55.70;;;;;;5061204;28;20834;-69
2022/09/04 00:12:08;;;;;;;1.30;1.10;;;20.30;55.30;;;;;;5032570;28;20544;-69
2022/09/04 00:15:03;;;;;;;1.30;1.10;;;20.40;54.40;;;;;;5033150;28;20397;-69
2022/09/04 00:17:38;;;;;;;1.30;1.17;;;20.40;54.20;;;;;;5038354;28;20458;-69
2022/09/04 00:20:19;;;;;;;1.30;1.10;;;20.60;52.90;;;;;;5062524;28;20406;-68
2022/09/04 00:23:10;;;;;;;1.30;1.20;;;20.40;53.00;;;;;;5065410;28;20418;-69
2022/09/04 00:25:44;;;;;;;1.30;1.10;;;20.30;54.60;;;;;;5070026;28;20434;-69
2022/09/04 00:28:16;;;;;;;1.30;1.20;;;20.30;54.70;;;;;;5055605;28;20432;-69
2022/09/04 00:30:50;;;;;;;1.30;1.20;;;20.50;53.80;;;;;;5064118;28;20826;-69
2022/09/04 00:33:53;;;;;;;1.30;1.20;;;20.30;54.30;;;;;;5072794;28;20402;-69
2022/09/04 00:36:23;;;;;;;1.30;1.20;;;20.20;54.80;;;;;;5054497;28;20428;-69
2022/09/04 00:38:55;;;;;;;1.30;1.20;;;20.20;54.80;;;;;;5056262;28;20468;-69
2022/09/04 00:41:33;;;;;;;1.30;1.10;;;20.10;54.90;;;;;;5060520;28;20806;-69
2022/09/04 00:44:17;;;;;;;1.30;1.20;;;20.10;54.30;;;;;;5051139;28;20474;-68
2022/09/04 00:47:06;;;;;;;1.30;1.10;;;20.10;53.80;;;;;;5055029;28;20443;-69
2022/09/04 00:50:02;;;;;;;1.27;1.10;;;20.10;54.00;;;;;;5057131;28;20427;-70
2022/09/04 00:52:40;;;;;;;1.27;1.00;;;19.90;55.00;;;;;;5047439;28;20488;-69
2022/09/04 00:55:28;;;;;;;1.30;1.10;;;20.00;54.70;;;;;;5051010;28;20402;-70
2022/09/04 00:58:06;;;;;;;1.30;1.10;;;19.80;54.70;;;;;;5051586;28;20733;-69
2022/09/04 01:00:32;;;;;;;1.30;1.17;;;19.90;55.50;;;;;;5058174;28;20473;-70
2022/09/04 01:03:14;;;;;;;1.30;1.10;;;19.90;54.20;;;;;;5067744;28;20892;-69
2022/09/04 01:05:55;;;;;;;1.30;1.10;;;20.10;53.40;;;;;;5072443;28;20191;-69
2022/09/04 01:08:58;;;;;;;1.27;1.20;;;20.30;52.10;;;;;;5061441;28;20420;-69
2022/09/04 01:11:42;;;;;;;1.30;1.10;;;20.30;52.00;;;;;;5062793;28;21168;-69
2022/09/04 01:14:11;;;;;;;1.30;1.10;;;20.20;52.30;;;;;;5063409;28;20504;-69
2022/09/04 01:17:00;;;;;;;1.30;1.20;;;20.20;52.80;;;;;;5062163;28;20414;-69
2022/09/04 01:19:49;;;;;;;1.30;1.10;;;20.00;52.70;;;;;;5065909;28;20428;-69
2022/09/04 01:22:28;;;;;;;1.30;1.10;;;19.80;53.30;;;;;;5060507;28;21125;-69
2022/09/04 01:25:08;;;;;;;1.30;1.00;;;19.70;55.00;;;;;;5062179;28;20406;-68
2022/09/04 01:28:02;;;;;;;1.30;1.10;;;19.80;55.30;;;;;;5052005;28;20976;-69
2022/09/04 01:30:31;;;;;;;1.30;1.20;;;19.80;53.60;;;;;;5031432;22;1139796;-75
2022/09/04 01:33:08;;;;;;;1.30;1.00;;;19.70;54.10;;;;;;5067966;28;20436;-73
2022/09/04 01:35:51;;;;;;;1.30;1.10;;;19.60;54.50;;;;;;5069563;28;20449;-73
2022/09/04 01:38:37;;;;;;;1.27;1.10;;;19.70;53.80;;;;;;5090095;28;20986;-73
2022/09/04 01:41:25;;;;;;;1.30;1.20;;;19.60;54.90;;;;;;5084349;28;20483;-73
2022/09/04 01:43:52;;;;;;;1.30;1.00;;;19.60;55.10;;;;;;5080900;28;20401;-75
2022/09/04 01:46:25;;;;;;;1.30;1.10;;;19.60;54.00;;;;;;5091652;28;20736;-73
2022/09/04 01:49:03;;;;;;;1.30;1.10;;;19.60;54.00;;;;;;5091962;28;20407;-74
2022/09/04 01:52:01;;;;;;;1.30;1.17;;;19.50;54.40;;;;;;5081745;28;20504;-73
2022/09/04 01:54:53;;;;;;;1.23;1.10;;;19.40;54.80;;;;;;5044182;28;20953;-73
2022/09/04 01:57:50;;;;;;;1.20;1.10;;;19.50;54.40;;;;;;5090719;28;20462;-73
2022/09/04 02:00:21;;;;;;;1.30;1.20;;;19.50;55.50;;;;;;5080328;28;20436;-73
2022/09/04 02:02:53;;;;;;;1.27;1.00;;;19.40;55.00;;;;;;5078048;28;20437;-73
2022/09/04 02:05:39;;;;;;;1.30;1.23;;;19.50;54.60;;;;;;5080419;28;20448;-73
2022/09/04 02:08:20;;;;;;;1.30;1.20;;;19.70;52.80;;;;;;5081298;28;20515;-73
2022/09/04 02:11:13;;;;;;;1.30;1.00;;;19.80;52.20;;;;;;5078401;28;20495;-73
2022/09/04 02:14:03;;;;;;;1.30;1.10;;;19.50;53.80;;;;;;5077004;28;20493;-73
2022/09/04 02:16:55;;;;;;;1.30;1.10;;;19.40;54.10;;;;;;5061054;28;20408;-73
2022/09/04 02:19:30;;;;;;;1.30;1.10;;;19.30;55.30;;;;;;5071519;28;20428;-73
2022/09/04 02:22:06;;;;;;;1.30;1.10;;;19.20;55.30;;;;;;5076204;28;20960;-73
2022/09/04 02:24:51;;;;;;;1.27;1.20;;;19.30;55.20;;;;;;5077231;28;20419;-73
2022/09/04 02:27:44;;;;;;;1.30;1.07;;;19.20;55.30;;;;;;5078526;28;20479;-73
2022/09/04 02:30:12;;;;;;;1.27;1.10;;;19.30;54.60;;;;;;5080379;28;20418;-73
2022/09/04 02:32:44;;;;;;;1.30;1.10;;;19.30;53.90;;;;;;5078411;28;20590;-73
2022/09/04 02:35:21;;;;;;;1.30;1.13;;;19.20;54.10;;;;;;5080563;28;20426;-73
2022/09/04 02:37:49;;;;;;;1.30;1.00;;;16.70;52.60;;;;;;5083276;28;20460;-73
2022/09/04 02:40:35;;;;;;;1.27;1.10;;;19.30;55.00;;;;;;5089868;28;20409;-73
2022/09/04 02:43:38;;;;;;;1.23;1.10;;;19.50;53.80;;;;;;5090879;28;20468;-74
2022/09/04 02:46:37;;;;;;;1.30;1.10;;;19.40;53.50;;;;;;5076716;28;20507;-73
2022/09/04 02:49:29;;;;;;;1.23;1.00;;;19.30;53.90;;;;;;5083611;28;20924;-73
2022/09/04 02:52:17;;;;;;;1.30;1.10;;;19.20;55.20;;;;;;5073817;28;20480;-73
2022/09/04 02:54:57;;;;;;;1.27;1.10;;;19.40;53.90;;;;;;5071537;28;20856;-73
2022/09/04 02:57:55;;;;;;;1.30;1.10;;;19.30;54.40;;;;;;5082772;28;20800;-73
2022/09/04 03:00:33;;;;;;;1.30;1.10;;;19.40;52.90;;;;;;5091403;28;20445;-73
2022/09/04 03:03:16;;;;;;;1.27;1.13;;;19.20;53.60;;;;;;5086400;28;20532;-73
2022/09/04 03:06:04;;;;;;;1.30;1.10;;;19.20;54.20;;;;;;5072833;28;20836;-73
2022/09/04 03:08:40;;;;;;;1.23;1.00;;;19.10;54.80;;;;;;5073677;28;20398;-73
2022/09/04 03:11:18;;;;;;;1.30;1.10;;;19.10;53.60;;;;;;5082191;28;20801;-73
2022/09/04 03:14:33;;;;;;;1.50;1.33;;;19.10;54.30;;;;;;5081229;28;20440;-73
2022/09/04 03:17:27;;;;;;;1.30;1.10;;;19.20;53.30;;;;;;5082434;28;20426;-73
2022/09/04 03:20:02;;;;;;;1.30;1.10;;;19.20;53.20;;;;;;5054511;28;20765;-73
2022/09/04 03:22:35;;;;;;;1.30;1.10;;;19.10;53.00;;;;;;5053513;28;20805;-73
2022/09/04 03:25:37;;;;;;;1.30;1.10;;;19.00;53.20;;;;;;5073369;28;20446;-73
2022/09/04 03:28:05;;;;;;;1.30;1.20;;;19.00;54.30;;;;;;5079505;28;20414;-73
2022/09/04 03:30:34;;;;;;;1.30;1.10;;;19.10;54.00;;;;;;5076818;28;20473;-73
2022/09/04 03:33:30;;;;;;;1.30;1.10;;;19.10;53.50;;;;;;5079264;28;20429;-74
2022/09/04 03:36:01;;;;;;;1.30;1.10;;;19.00;54.10;;;;;;5079908;28;20428;-73
2022/09/04 03:39:01;;;;;;;1.27;1.10;;;19.10;53.10;;;;;;5083818;28;20860;-73
2022/09/04 03:41:57;;;;;;;1.30;1.10;;;19.00;53.20;;;;;;5070053;28;20540;-73
2022/09/04 03:44:36;;;;;;;1.30;1.00;;;19.00;52.80;;;;;;5080877;28;20432;-73
2022/09/04 03:47:22;;;;;;;1.30;1.10;;;18.90;53.60;;;;;;5082329;28;20469;-73
2022/09/04 03:50:03;;;;;;;1.30;1.17;;;18.90;54.10;;;;;;5094038;28;20410;-74
2022/09/04 03:52:46;;;;;;;1.30;1.10;;;19.00;53.40;;;;;;5091871;28;20425;-73
2022/09/04 03:55:36;;;;;;;1.30;1.10;;;18.90;54.10;;;;;;5083269;28;20418;-73
2022/09/04 03:58:01;;;;;;;1.30;1.20;;;18.90;53.70;;;;;;5087163;28;20456;-73
2022/09/04 04:00:37;;;;;;;1.27;1.10;;;18.80;54.80;;;;;;5076603;28;20436;-73
2022/09/04 04:03:16;;;;;;;1.30;1.10;;;18.80;55.20;;;;;;5080814;28;20539;-73
2022/09/04 04:06:05;;;;;;;1.30;1.00;;;18.80;54.20;;;;;;5076076;28;20496;-73
2022/09/04 04:09:03;;;;;;;1.30;1.10;;;18.70;54.50;;;;;;5073093;28;20394;-73
2022/09/04 04:12:06;;;;;;;1.27;1.00;;;18.70;54.50;;;;;;5073124;28;20465;-73
2022/09/04 04:15:15;;;;;;;1.30;1.20;;;18.80;55.30;;;;;;5074084;28;20470;-73
2022/09/04 04:18:10;;;;;;;1.30;1.10;;;18.80;55.70;;;;;;5080103;28;20448;-73
2022/09/04 04:21:03;;;;;;;1.30;1.10;;;18.70;56.20;;;;;;5030764;28;20785;-73
2022/09/04 04:23:32;;;;;;;1.30;1.20;;;18.80;56.10;;;;;;5019536;28;20431;-73
2022/09/04 04:26:20;;;;;;;1.30;1.10;;;18.80;53.60;;;;;;5018950;28;20471;-73
2022/09/04 04:29:24;;;;;;;1.23;1.07;;;18.80;54.90;;;;;;5019075;28;20424;-73
2022/09/04 04:32:10;;;;;;;1.30;1.27;;;18.80;54.50;;;;;;5008656;28;20463;-73
2022/09/04 04:35:07;;;;;;;1.30;1.10;;;18.70;54.20;;;;;;5009254;28;20925;-74
2022/09/04 04:37:52;;;;;;;1.30;1.10;;;18.70;54.50;;;;;;5023202;28;20459;-73
2022/09/04 04:40:26;;;;;;;1.30;1.10;;;18.60;53.30;;;;;;5030507;28;20407;-74
2022/09/04 04:42:55;;;;;;;1.30;1.10;;;18.60;52.60;;;;;;5021369;28;20804;-73
2022/09/04 04:45:49;;;;;;;1.30;1.13;;;18.50;53.80;;;;;;5022446;28;20509;-73
2022/09/04 04:48:24;;;;;;;1.30;1.10;;;18.70;53.50;;;;;;5018392;28;21051;-73
2022/09/04 04:51:04;;;;;;;1.30;1.20;;;18.50;53.30;;;;;;5016383;28;21254;-73
2022/09/04 04:53:36;;;;;;;1.30;1.10;;;18.50;54.00;;;;;;5022490;28;20837;-73
2022/09/04 04:56:45;;;;;;;1.30;1.10;;;18.40;54.90;;;;;;5022781;28;20555;-73
2022/09/04 04:59:36;;;;;;;1.30;1.10;;;18.50;53.50;;;;;;5074431;28;20479;-73
2022/09/04 05:02:18;;;;;;;1.30;1.10;;;18.50;53.90;;;;;;5088845;28;20468;-73
2022/09/04 05:05:00;;;;;;;1.30;1.10;;;18.40;54.50;;;;;;5090693;28;20393;-73
2022/09/04 05:07:33;;;;;;;1.30;1.00;;;18.50;54.20;;;;;;5080396;28;20427;-73
2022/09/04 05:10:24;;;;;;;1.30;1.10;;;18.50;54.00;;;;;;5083931;28;20408;-74
2022/09/04 05:13:14;;;;;;;1.30;1.17;;;18.40;54.50;;;;;;5046413;28;20903;-73
2022/09/04 05:16:10;;;;;;;1.30;1.10;;;18.40;55.60;;;;;;5056518;28;20432;-73
2022/09/04 05:19:14;;;;;;;1.30;1.10;;;18.40;55.70;;;;;;5073702;28;20543;-73
2022/09/04 05:22:15;;;;;;;1.30;1.10;;;18.40;55.40;;;;;;5077046;28;20561;-73
2022/09/04 05:24:49;;;;;;;1.30;1.10;;;18.50;54.90;;;;;;5085688;28;20469;-73
2022/09/04 05:27:38;;;;;;;1.30;1.00;;;18.50;54.60;;;;;;5080611;28;20905;-73
2022/09/04 05:30:17;;;;;;;1.27;1.10;;;18.60;55.00;;;;;;5074778;28;20409;-73
2022/09/04 05:32:59;;;;;;;1.30;1.00;;;18.70;54.80;;;;;;5078909;28;20460;-73
2022/09/04 05:35:46;;;;;;;1.30;1.20;;;18.70;54.70;;;;;;5091645;28;20498;-73
2022/09/04 05:38:31;;;;;;;1.30;1.10;;;18.90;53.70;;;;;;5083036;28;20852;-73
2022/09/04 05:41:10;;;;;;;1.30;1.10;;;18.90;54.20;;;;;;5073515;28;20426;-74
2022/09/04 05:43:46;;;;;;;1.30;1.10;;;18.90;54.90;;;;;;5071745;28;20428;-73
2022/09/04 05:46:44;;;;;;;1.23;1.00;;;18.90;54.20;;;;;;5079008;28;20519;-73
2022/09/04 05:49:23;;;;;;;1.30;1.10;;;19.00;54.20;;;;;;5055786;28;20944;-73
2022/09/04 05:51:51;;;;;;;1.30;1.10;;;19.10;54.40;;;;;;5082383;28;20960;-73
2022/09/04 05:54:23;;;;;;;1.30;1.20;;;19.20;53.90;;;;;;5090641;28;20413;-73
2022/09/04 05:57:07;;;;;;;1.27;1.07;;;19.20;54.30;;;;;;5087132;28;20397;-73
2022/09/04 05:59:44;;;;;;;1.23;1.10;;;19.20;55.30;;;;;;5078013;28;20921;-73
2022/09/04 06:02:31;;;;;;;1.27;1.10;;;19.20;54.70;;;;;;5081157;28;20531;-73
2022/09/04 06:05:22;;;;;;;1.30;1.20;;;19.10;53.40;;;;;;5083069;28;20417;-75
2022/09/04 06:08:19;;;;;;;1.30;1.10;;;18.90;57.20;;;;;;5074145;28;20830;-73
2022/09/04 06:10:59;;;;;;;1.30;1.10;;;19.00;56.40;;;;;;5068561;28;20442;-73
2022/09/04 06:13:31;;;;;;;1.30;1.10;;;18.90;55.70;;;;;;5068712;28;20989;-73
2022/09/04 06:16:26;;;;;;;1.30;1.00;;;19.00;55.40;;;;;;5079384;28;20410;-73
2022/09/04 06:19:30;;;;;;;1.30;1.10;;;19.10;55.10;;;;;;5014055;28;20459;-73
2022/09/04 06:22:23;;;;;;;1.30;1.10;;;19.00;55.20;;;;;;5073655;28;20834;-73
2022/09/04 06:25:08;;;;;;;1.23;1.10;;;19.10;54.50;;;;;;5059665;28;20425;-73
2022/09/04 06:27:39;;;;;;;1.20;1.03;;;19.20;56.00;;;;;;5069420;28;20778;-73
2022/09/04 06:30:10;;;;;;;1.20;1.10;;;19.50;55.00;;;;;;5080035;28;20446;-73
2022/09/04 06:32:45;;;;;;;1.30;1.17;;;19.40;54.60;;;;;;5071575;28;20499;-73
2022/09/04 06:35:17;;;;;;;1.30;1.10;;;19.60;54.60;;;;;;5071266;28;20411;-73
2022/09/04 06:38:19;;;;;;;1.30;1.00;;;19.80;54.00;;;;;;5070847;28;20465;-74
2022/09/04 06:40:55;;;;;;;1.23;1.10;;;19.90;54.30;;;;;;5079081;28;20970;-74
2022/09/04 06:43:47;;;;;;;1.30;1.13;;;19.90;53.00;;;;;;5094480;28;20398;-73
2022/09/04 06:46:32;;;;;;;1.23;1.20;;;19.50;53.90;;;;;;5066535;28;20860;-73
2022/09/04 06:49:17;;;;;;;1.30;1.20;;;19.30;55.20;;;;;;5077083;28;20425;-73
2022/09/04 06:51:56;;;;;;;1.30;1.03;;;19.10;58.90;;;;;;5077437;28;20426;-77
2022/09/04 06:54:30;;;;;;;1.30;1.10;;;19.00;58.50;;;;;;5075684;28;20424;-73
2022/09/04 06:56:58;;;;;;;1.30;1.17;;;19.50;58.10;;;;;;5082505;28;20430;-73
2022/09/04 06:59:39;;;;;;;1.27;1.10;;;19.70;56.70;;;;;;5081830;28;20471;-75
2022/09/04 07:02:31;;;;;;;1.20;1.10;;;20.00;55.20;;;;;;5077661;28;20482;-73
2022/09/04 07:05:08;;;;;;;1.30;1.10;;;20.20;52.60;;;;;;5062421;28;20951;-74
2022/09/04 07:08:00;;;;;;;1.23;1.10;;;20.10;52.90;;;;;;5065727;28;20952;-73
2022/09/04 07:10:34;;;;;;;1.20;1.10;;;19.70;54.30;;;;;;5070059;28;20916;-73
2022/09/04 07:13:43;;;;;;;1.30;1.20;;;20.00;53.50;;;;;;5073428;28;20425;-75
2022/09/04 07:16:39;;;;;;;1.20;1.10;;;20.20;54.50;;;;;;5063681;28;20461;-73
2022/09/04 07:19:19;;;;;;;1.30;1.17;;;20.40;54.10;;;;;;5069058;28;20452;-72
2022/09/04 07:22:03;;;;;;;1.20;1.10;;;20.30;50.80;;;;;;5058530;28;20514;-72
2022/09/04 07:24:32;;;;;;;1.23;1.10;;;20.10;54.60;;;;;;5066910;28;20513;-71
2022/09/04 07:27:19;;;;;;;1.30;1.10;;;20.70;53.60;;;;;;5065985;28;20420;-74
2022/09/04 07:30:05;;;;;;;1.20;1.10;;;20.30;55.00;;;;;;5061266;28;20422;-72
2022/09/04 07:32:43;;;;;;;1.27;1.10;;;20.80;53.50;;;;;;5061259;28;20456;-73
2022/09/04 07:35:23;;;;;;;1.20;1.10;;;21.00;51.60;;;;;;5075358;28;20526;-72
2022/09/04 07:38:03;;;;;;;1.20;1.20;;;20.70;52.90;;;;;;5060223;28;22197;-72
2022/09/04 07:40:37;;;;;;;1.20;1.10;;;20.90;51.60;;;;;;5069027;28;20413;-72
2022/09/04 07:43:33;;;;;;;1.30;1.20;;;20.40;54.20;;;;;;5082745;22;20502;-72
2022/09/04 07:46:16;;;;;;;1.20;1.20;;;20.80;55.70;;;;;;5072659;28;20794;-69
2022/09/04 07:48:54;;;;;;;1.30;1.10;;;20.90;52.50;;;;;;5065988;28;20436;-69
2022/09/04 07:51:31;;;;;;;1.20;1.10;;;21.10;51.00;;;;;;5066613;28;20555;-73
2022/09/04 07:54:12;;;;;;;1.20;1.10;;;21.40;51.40;;;;;;5070620;28;20481;-71
2022/09/04 07:56:48;;;;;;;1.20;1.10;;;21.70;52.80;;;;;;5069741;28;20782;-69
2022/09/04 07:59:48;;;;;;;1.27;1.27;;;22.00;50.60;;;;;;5067266;28;20449;-71
2022/09/04 08:02:41;;;;;;;1.20;1.10;;;21.90;47.20;;;;;;5059695;28;20534;-68
2022/09/04 08:05:28;;;;;;;1.30;1.10;;;21.10;50.90;;;;;;5063716;28;20954;-70
2022/09/04 08:08:02;;;;;;;1.20;1.10;;;21.90;51.30;;;;;;5070455;28;20535;-71
2022/09/04 08:11:11;;;;;;;1.20;1.20;;;22.20;48.20;;;;;;5070787;28;20437;-69
2022/09/04 08:14:12;;;;;;;1.20;1.10;;;22.30;47.50;;;;;;5075325;28;20447;-69
2022/09/04 08:17:42;;;;;;;1.20;1.10;;;22.40;47.10;;;;;;5068571;28;20438;-70
2022/09/04 08:20:51;;;;;;;1.70;1.60;;;22.40;46.70;;;;;;4999431;28;20517;-75
2022/09/04 08:23:23;;;;;;;1.30;1.20;;;21.80;48.30;;;;;;5029878;28;20459;-70
2022/09/04 08:26:16;;;;;;;1.20;1.20;;;22.10;49.00;;;;;;5068865;28;20414;-69
2022/09/04 08:28:45;;;;;;;1.30;1.10;;;22.50;47.00;;;;;;5067210;28;20420;-69
2022/09/04 08:31:17;;;;;;;1.20;1.20;;;22.40;47.20;;;;;;5073493;28;20897;-70
2022/09/04 08:34:07;;;;;;;1.30;1.30;;;22.30;48.80;;;;;;5062963;28;20536;-70
2022/09/04 08:36:53;;;;;;;1.20;1.10;;;22.70;45.80;;;;;;5077422;28;20418;-69
2022/09/04 08:39:33;;;;;;;1.30;1.20;;;22.80;45.50;;;;;;5065389;28;20455;-69
2022/09/04 08:42:11;;;;;;;1.20;1.10;;;23.00;45.20;;;;;;5078929;28;20498;-70
2022/09/04 08:45:14;;;;;;;1.20;1.13;;;22.90;43.60;;;;;;5067115;28;20430;-69
2022/09/04 08:47:54;;;;;;;1.20;1.10;;;22.40;44.90;;;;;;5072065;28;21002;-69
2022/09/04 08:50:33;;;;;;;1.20;1.10;;;22.50;44.00;;;;;;5069835;28;20955;-69
2022/09/04 08:53:21;;;;;;;1.20;1.07;;;22.70;42.40;;;;;;5070109;28;20449;-69
2022/09/04 08:56:08;;;;;;;1.20;1.10;;;23.20;42.30;;;;;;5067434;28;20931;-69
2022/09/04 08:58:51;;;;;;;1.20;1.10;;;23.90;38.90;;;;;;5077948;28;20669;-70
2022/09/04 09:01:26;;;;;;;1.20;1.00;;;24.10;38.80;;;;;;5069946;28;20497;-69
2022/09/04 09:04:37;;;;;;;1.30;1.30;;;24.40;38.40;;;;;;5073506;28;20451;-69
2022/09/04 09:07:40;;;;;;;1.20;1.20;;;24.40;39.40;;;;;;5066548;28;20424;-69
2022/09/04 09:10:25;;;;;;;1.20;1.17;;;24.40;40.80;;;;;;5078113;28;21095;-69
2022/09/04 09:13:15;;;;;;;1.23;1.20;;;24.00;38.40;;;;;;5063358;28;20466;-70
2022/09/04 09:16:08;;;;;;;1.23;1.13;;;23.90;39.30;;;;;;5070179;28;20425;-69
2022/09/04 09:18:55;;;;;;;1.20;1.20;;;24.20;39.50;;;;;;5062495;28;20827;-70
2022/09/04 09:21:43;;;;;;;1.20;1.10;;;24.60;39.10;;;;;;5082256;28;20454;-70
2022/09/04 09:24:33;;;;;;;1.20;1.10;;;24.70;37.00;;;;;;5078939;28;20435;-70
2022/09/04 09:27:08;;;;;;;1.20;1.10;;;24.70;36.70;;;;;;5068424;28;20415;-69
2022/09/04 09:29:36;;;;;;;1.20;1.10;;;23.90;38.30;;;;;;5066731;28;20432;-69
2022/09/04 09:32:40;;;;;;;1.20;1.10;;;23.90;33.80;;;;;;5067403;28;20893;-69
2022/09/04 09:35:28;;;;;;;1.20;1.10;;;23.90;37.40;;;;;;5062954;28;20410;-69
2022/09/04 09:38:14;;;;;;;1.20;1.10;;;24.60;33.90;;;;;;5062687;28;20453;-70
2022/09/04 09:41:07;;;;;;;1.20;1.13;;;25.00;34.90;;;;;;5070813;28;20418;-69
2022/09/04 09:44:00;;;;;;;1.20;1.20;;;25.40;31.60;;;;;;5063600;28;20496;-69
2022/09/04 09:47:00;;;;;;;1.20;1.10;;;25.60;30.20;;;;;;5064813;28;20766;-68
2022/09/04 09:49:44;;;;;;;1.20;1.10;;;25.60;29.20;;;;;;5056609;28;20423;-69
2022/09/04 09:52:35;;;;;;;1.20;1.20;;;25.70;29.70;;;;;;5053576;28;20445;-69
2022/09/04 09:55:37;;;;;;;1.20;1.10;;;25.90;30.00;;;;;;5062227;28;20409;-69
2022/09/04 09:58:19;;;;;;;1.20;1.10;;;25.70;30.90;;;;;;5068560;28;20973;-69
2022/09/04 10:01:15;;;;;;;1.20;1.10;;;25.90;30.00;;;;;;5050972;28;20620;-69
2022/09/04 10:04:19;;;;;;;1.20;1.10;;;25.50;29.50;;;;;;5058969;28;20434;-69
2022/09/04 10:07:20;;;;;;;1.27;1.20;;;24.90;32.30;;;;;;5066268;28;20467;-69
2022/09/04 10:10:04;;;;;;;1.20;1.10;;;24.60;33.90;;;;;;5058411;28;20416;-69
2022/09/04 10:13:03;;;;;;;1.20;1.20;;;24.30;34.40;;;;;;5055009;28;20447;-68
2022/09/04 10:15:45;;;;;;;1.20;1.10;;;24.20;34.20;;;;;;5062587;28;20420;-69
2022/09/04 10:18:32;;;;;;;1.30;1.23;;;24.90;32.10;;;;;;5069467;28;20968;-70
2022/09/04 10:21:29;;;;;;;1.20;1.13;;;26.00;30.00;;;;;;5066996;28;20522;-69
2022/09/04 10:24:41;;;;;;;1.30;1.20;;;26.30;30.80;;;;;;5003566;28;20480;-69
2022/09/04 10:27:26;;;;;;;1.20;1.17;;;26.60;29.30;;;;;;5070270;28;20424;-69
2022/09/04 10:30:09;;;;;;;1.23;1.20;;;27.00;29.20;;;;;;5061872;28;20413;-69
2022/09/04 10:32:53;;;;;;;1.20;1.10;;;27.10;29.20;;;;;;5073297;28;20439;-69
2022/09/04 10:35:38;;;;;;;1.20;1.13;;;27.60;30.70;;;;;;5071348;28;20857;-70
2022/09/04 10:38:32;;;;;;;1.20;1.20;;;27.90;27.00;;;;;;5065293;28;20461;-69
2022/09/04 10:41:21;;;;;;;1.20;1.20;;;27.90;28.40;;;;;;5061920;28;20436;-69
2022/09/04 10:43:56;;;;;;;1.20;1.10;;;27.70;25.70;;;;;;5067587;28;20444;-68
2022/09/04 10:46:38;;;;;;;1.20;1.13;;;27.80;25.00;;;;;;5062948;28;20947;-69
2022/09/04 10:49:25;;;;;;;1.20;1.20;;;28.00;25.00;;;;;;5061387;28;20475;-69
2022/09/04 10:52:12;;;;;;;1.20;1.10;;;27.80;28.70;;;;;;5068475;28;20763;-69
2022/09/04 10:55:06;;;;;;;1.20;1.10;;;27.90;24.40;;;;;;5062048;28;20429;-69
2022/09/04 10:57:37;;;;;;;1.20;1.10;;;28.30;25.60;;;;;;5070335;28;20947;-70
2022/09/04 11:00:04;;;;;;;1.20;1.10;;;28.90;23.70;;;;;;5067722;28;20430;-69
2022/09/04 11:02:52;;;;;;;1.20;1.10;;;29.90;23.70;;;;;;5069347;28;20452;-70
2022/09/04 11:06:14;;;;;;;1.20;1.10;;;30.20;21.10;;;;;;5055465;28;20844;-71
2022/09/04 11:08:42;;;;;;;1.20;1.10;;;29.60;20.80;;;;;;5008550;28;20420;-69
2022/09/04 11:11:32;;;;;;;1.20;1.10;;;29.10;24.00;;;;;;5008279;28;20424;-69
2022/09/04 11:14:10;;;;;;;1.20;1.00;;;30.60;20.30;;;;;;5011410;28;20466;-70
2022/09/04 11:17:13;;;;;;;1.20;1.00;;;31.70;19.50;;;;;;5003943;28;20423;-71
2022/09/04 11:19:59;;;;;;;1.20;1.10;;;32.00;17.40;;;;;;5011913;28;20560;-70
2022/09/04 11:22:52;;;;;;;1.20;1.00;;;32.40;17.50;;;;;;5011117;28;20450;-70
2022/09/04 11:25:37;;;;;;;1.20;1.00;;;32.90;19.10;;;;;;5011387;28;20655;-69
2022/09/04 11:28:39;;;;;;;1.20;1.00;;;33.50;15.60;;;;;;5008866;28;20424;-70
2022/09/04 11:31:13;;;;;;;1.20;0.90;;;33.30;17.10;;;;;;5009383;28;20477;-70
2022/09/04 11:33:41;;;;;;;1.20;0.90;;;33.10;17.90;;;;;;5011610;28;20444;-70
2022/09/04 11:36:25;;;;;;;1.20;0.90;;;31.30;18.20;;;;;;5011678;28;20428;-69
2022/09/04 11:39:07;;;;;;;1.20;0.90;;;31.00;17.90;;;;;;5032127;28;20552;-69
2022/09/04 11:42:00;;;;;;;1.20;0.90;;;31.40;18.50;;;;;;5072397;28;20421;-70
2022/09/04 11:44:45;;;;;;;1.20;0.90;;;33.20;18.60;;;;;;5062653;28;20426;-70
2022/09/04 11:47:57;;;;;;;1.20;1.00;;;34.40;15.70;;;;;;5061077;28;20425;-70
2022/09/04 11:51:00;;;;;;;1.20;0.90;;;34.80;14.10;;;;;;4999686;28;20424;-70
2022/09/04 11:53:39;;;;;;;1.20;0.90;;;32.60;16.30;;;;;;5067318;28;20523;-70
2022/09/04 11:56:29;;;;;;;1.20;0.90;;;33.20;14.90;;;;;;5062164;28;20445;-72
2022/09/04 11:59:24;;;;;;;1.20;0.90;;;33.20;14.80;;;;;;5066961;28;20544;-70
2022/09/04 12:02:02;;;;;;;1.20;0.90;;;34.30;13.80;;;;;;5070312;28;20792;-70
2022/09/04 12:05:00;;;;;;;1.20;0.90;;;36.00;13.70;;;;;;5070122;28;20436;-70
2022/09/04 12:07:46;;;;;;;1.20;0.83;;;34.10;14.30;;;;;;5058543;28;21018;-73
2022/09/04 12:10:37;;;;;;;1.20;0.80;;;35.20;13.10;;;;;;5070595;28;20932;-71
2022/09/04 12:13:05;;;;;;;1.20;0.90;;;37.20;12.20;;;;;;5067513;28;20459;-70
2022/09/04 12:16:08;;;;;;;1.20;0.90;;;37.50;11.20;;;;;;5064462;28;20842;-70
2022/09/04 12:18:56;;;;;;;1.20;0.90;;;38.00;12.60;;;;;;5075486;28;20471;-70
2022/09/04 12:21:40;;;;;;;1.20;0.90;;;36.40;13.40;;;;;;5067246;28;20426;-70
2022/09/04 12:24:28;;;;;;;1.20;0.90;;;37.10;10.70;;;;;;5064275;28;20809;-74
2022/09/04 12:27:00;;;;;;;1.20;1.00;;;37.00;13.10;;;;;;5074324;28;20839;-70
2022/09/04 12:29:44;;;;;;;1.20;0.87;;;35.20;10.90;;;;;;5064722;28;20421;-71
2022/09/04 12:32:43;;;;;;;1.20;0.90;;;34.20;13.70;;;;;;5070913;28;20479;-72
2022/09/04 12:35:28;;;;;;;1.20;0.90;;;34.60;12.10;;;;;;5070951;28;20448;-70
2022/09/04 12:38:36;;;;;;;1.20;0.90;;;32.50;14.50;;;;;;5070016;28;20449;-72
2022/09/04 12:41:27;;;;;;;1.20;1.00;;;32.40;15.20;;;;;;5068378;28;20454;-71
2022/09/04 12:44:10;;;;;;;1.20;0.90;;;31.60;15.80;;;;;;5070352;28;20489;-69
2022/09/04 12:46:59;;;;;;;1.20;1.00;;;30.60;16.70;;;;;;5073320;28;20415;-70
2022/09/04 12:49:26;;;;;;;1.20;1.00;;;30.60;17.80;;;;;;5068981;28;20526;-70
2022/09/04 12:52:00;;;;;;;1.20;1.00;;;31.70;19.50;;;;;;5069017;28;20536;-70
2022/09/04 12:55:08;;;;;;;1.20;1.00;;;32.10;17.20;;;;;;5068117;28;20528;-70
2022/09/04 12:58:08;;;;;;;1.20;1.10;;;32.60;15.40;;;;;;5007992;28;20446;-73
2022/09/04 13:00:43;;;;;;;1.20;1.00;;;32.80;16.10;;;;;;5003420;28;21043;-69
2022/09/04 13:03:16;;;;;;;1.20;1.00;;;32.80;15.60;;;;;;5004324;28;20445;-71
2022/09/04 13:05:51;;;;;;;1.20;1.00;;;32.20;14.70;;;;;;5008882;28;20442;-70
2022/09/04 13:08:35;;;;;;;1.20;1.03;;;32.50;14.10;;;;;;5007201;28;20439;-69
2022/09/04 13:11:09;;;;;;;1.20;1.00;;;32.60;14.50;;;;;;5002598;28;20439;-70
2022/09/04 13:14:10;;;;;;;1.20;1.00;;;33.50;15.00;;;;;;5005807;28;20456;-70
2022/09/04 13:16:52;;;;;;;1.20;1.00;;;34.30;16.80;;;;;;4913334;29;20436;-70
2022/09/04 13:19:45;;;;;;;1.20;1.00;;;34.00;12.90;;;;;;4912033;29;20535;-70
2022/09/04 13:22:13;;;;;;;1.20;0.93;;;33.40;13.70;;;;;;4893937;29;20456;-69
2022/09/04 13:24:50;;;;;;;1.20;0.90;;;32.20;15.80;;;;;;4901427;29;20475;-72
2022/09/04 13:27:27;;;;;;;1.20;1.07;;;32.00;15.90;;;;;;4911923;28;20847;-70
2022/09/04 13:29:57;;;;;;;1.20;1.10;;;31.90;17.30;;;;;;4987379;28;20534;-69
2022/09/04 13:32:23;;;;;;;1.20;1.00;;;31.90;16.20;;;;;;4969200;28;22064;-69
2022/09/04 13:35:12;;;;;;;1.20;1.00;;;31.10;16.40;;;;;;4984253;28;20951;-69
2022/09/04 13:37:53;;;;;;;1.20;1.07;;;29.80;17.30;;;;;;4976707;28;20248;-71
2022/09/04 13:40:42;;;;;;;1.20;1.00;;;29.10;19.40;;;;;;4985684;28;21070;-70
2022/09/04 13:43:45;;;;;;;1.20;1.10;;;30.40;17.10;;;;;;4980635;28;20496;-69
2022/09/04 13:46:19;;;;;;;1.20;1.10;;;30.40;17.00;;;;;;5017436;22;20420;-69
2022/09/04 13:48:55;;;;;;;1.20;1.10;;;29.60;17.60;;;;;;5009569;28;20428;-71
2022/09/04 13:51:33;;;;;;;1.20;1.10;;;28.90;18.60;;;;;;5007303;28;20435;-70
2022/09/04 13:54:03;;;;;;;1.20;1.10;;;29.00;18.90;;;;;;5009165;28;20442;-70
2022/09/04 13:56:37;;;;;;;1.20;1.10;;;29.80;19.30;;;;;;5003911;28;20826;-70
2022/09/04 13:59:08;;;;;;;1.20;1.17;;;30.10;19.10;;;;;;5008231;28;20966;-70
2022/09/04 14:01:44;;;;;;;1.20;1.10;;;30.80;19.80;;;;;;5008746;28;20436;-71
2022/09/04 14:04:22;;;;;;;1.30;1.20;;;31.10;18.40;;;;;;5008471;28;20431;-70
2022/09/04 14:06:48;;;;;;;1.20;1.03;;;31.00;16.10;;;;;;5011618;28;20538;-71
2022/09/04 14:09:15;;;;;;;1.20;1.10;;;30.10;17.40;;;;;;5018086;28;20478;-71
2022/09/04 14:12:03;;;;;;;1.30;1.17;;;29.60;18.10;;;;;;5006071;28;20428;-71
2022/09/04 14:14:58;;;;;;;1.20;1.10;;;29.50;18.70;;;;;;5001594;28;20503;-71
2022/09/04 14:17:34;;;;;;;1.30;1.20;;;29.60;20.20;;;;;;5006738;28;20460;-72
2022/09/04 14:20:13;;;;;;;1.20;1.03;;;30.20;18.10;;;;;;5011260;28;20460;-73